createdAt,value
2023-05-04T00:02:28.856Z,71.11
2023-05-04T00:04:59.556Z,71.20
2023-05-04T00:07:31.112Z,71.35
2023-05-04T00:10:03.763Z,71.54
2023-05-04T00:12:34.634Z,71.85
2023-05-04T00:15:07.660Z,72.25
2023-05-04T00:17:38.240Z,72.16
2023-05-04T00:20:10.081Z,72.26
2023-05-04T00:22:41.521Z,72.59
2023-05-04T00:25:12.356Z,72.52
2023-05-04T00:27:42.955Z,72.62
2023-05-04T00:30:15.314Z,72.82
2023-05-04T00:32:46.618Z,72.67
2023-05-04T00:35:17.764Z,72.91
2023-05-04T00:37:48.618Z,73.01
2023-05-04T00:40:19.538Z,73.19
2023-05-04T00:42:50.152Z,73.24
2023-05-04T00:45:20.755Z,73.39
2023-05-04T00:47:51.637Z,73.58
2023-05-04T00:50:22.223Z,73.52
2023-05-04T00:52:54.281Z,73.59
2023-05-04T00:55:25.409Z,73.37
2023-05-04T00:57:56.803Z,73.78
2023-05-04T01:00:27.314Z,73.80
2023-05-04T01:02:58.864Z,73.71
2023-05-04T01:05:32.554Z,73.85
2023-05-04T01:08:11.132Z,73.86
2023-05-04T01:10:44.880Z,73.95
2023-05-04T01:13:17.195Z,74.19
2023-05-04T01:15:49.109Z,74.25
2023-05-04T01:18:19.864Z,74.06
2023-05-04T01:20:50.790Z,74.25
2023-05-04T01:23:22.499Z,74.47
2023-05-04T01:26:24.998Z,74.49
2023-05-04T01:29:16.907Z,74.73
2023-05-04T01:31:48.318Z,74.78
2023-05-04T01:34:19.143Z,74.87
2023-05-04T01:36:51.305Z,74.91
2023-05-04T01:39:22.375Z,74.95
2023-05-04T01:41:52.874Z,74.98
2023-05-04T01:44:25.713Z,74.88
2023-05-04T01:46:56.217Z,75.04
2023-05-04T01:49:26.788Z,75.25
2023-05-04T01:51:57.387Z,75.15
2023-05-04T01:54:27.992Z,75.06
2023-05-04T01:56:58.522Z,75.23
2023-05-04T01:59:30.869Z,75.20
2023-05-04T02:02:01.596Z,75.09
2023-05-04T02:04:34.077Z,75.38
2023-05-04T02:07:04.732Z,75.22
2023-05-04T02:09:36.599Z,75.43
2023-05-04T02:12:07.541Z,75.43
2023-05-04T02:14:38.289Z,75.53
2023-05-04T02:17:09.890Z,75.57
2023-05-04T02:19:41.028Z,75.64
2023-05-04T02:22:11.548Z,75.67
2023-05-04T02:24:42.116Z,75.50
2023-05-04T02:27:12.755Z,75.64
2023-05-04T02:29:43.170Z,75.68
2023-05-04T02:32:13.820Z,75.29
2023-05-04T02:34:44.327Z,75.55
2023-05-04T02:37:14.996Z,75.23
2023-05-04T02:39:45.529Z,75.19
2023-05-04T02:42:16.284Z,75.34
2023-05-04T02:44:46.804Z,75.13
2023-05-04T02:47:23.167Z,75.20
2023-05-04T02:49:53.864Z,75.00
2023-05-04T02:52:26.243Z,74.86
2023-05-04T02:54:57.778Z,74.70
2023-05-04T02:57:28.400Z,74.90
2023-05-04T02:59:59.986Z,74.47
2023-05-04T03:02:30.623Z,74.75
2023-05-04T03:05:02.371Z,74.60
2023-05-04T03:07:32.834Z,74.74
2023-05-04T03:10:04.217Z,75.06
2023-05-04T03:12:36.611Z,74.97
2023-05-04T03:15:10.048Z,75.04
2023-05-04T03:17:40.714Z,75.10
2023-05-04T03:20:13.224Z,75.04
2023-05-04T03:22:45.355Z,75.23
2023-05-04T03:25:16.088Z,75.23
2023-05-04T03:27:46.902Z,75.32
2023-05-04T03:30:17.698Z,74.96
2023-05-04T03:32:53.472Z,74.95
2023-05-04T03:35:25.012Z,74.93
2023-05-04T03:37:58.683Z,75.04
2023-05-04T03:40:28.339Z,75.18
2023-05-04T03:42:58.771Z,74.88
2023-05-04T03:45:29.296Z,74.99
2023-05-04T03:48:00.526Z,74.74
2023-05-04T03:50:31.920Z,74.71
2023-05-04T03:53:05.495Z,74.92
2023-05-04T03:55:36.226Z,74.86
2023-05-04T03:58:06.885Z,74.74
2023-05-04T04:00:38.946Z,74.69
2023-05-04T04:03:09.777Z,74.52
2023-05-04T04:05:40.647Z,74.59
2023-05-04T04:08:14.286Z,74.26
2023-05-04T04:10:44.889Z,74.35
2023-05-04T04:13:15.892Z,74.20
2023-05-04T04:15:46.879Z,74.18
2023-05-04T04:18:17.678Z,74.21
2023-05-04T04:20:48.669Z,74.06
2023-05-04T04:23:22.350Z,73.90
2023-05-04T04:25:54.109Z,73.53
2023-05-04T04:28:24.697Z,73.48
2023-05-04T04:30:55.248Z,73.40
2023-05-04T04:33:26.340Z,73.13
2023-05-04T04:35:56.812Z,72.98
2023-05-04T04:38:28.660Z,73.16
2023-05-04T04:40:59.236Z,72.80
2023-05-04T04:43:29.697Z,72.55
2023-05-04T04:46:00.374Z,72.21
2023-05-04T04:48:32.552Z,72.04
2023-05-04T04:51:04.497Z,71.76
2023-05-04T04:53:34.989Z,71.82
2023-05-04T04:56:07.737Z,71.12
2023-05-04T04:58:38.218Z,70.84
2023-05-04T05:01:08.843Z,67.36
2023-05-04T05:03:39.403Z,61.67
2023-05-04T05:06:11.480Z,56.82
2023-05-04T05:08:43.814Z,54.24
2023-05-04T05:11:14.528Z,52.54
2023-05-04T05:13:45.116Z,52.27
2023-05-04T05:16:18.259Z,47.67
2023-05-04T05:18:48.992Z,44.95
2023-05-04T05:21:20.424Z,45.44
2023-05-04T05:23:50.862Z,47.13
2023-05-04T05:26:21.795Z,48.34
2023-05-04T05:28:53.499Z,50.00
2023-05-04T05:31:24.118Z,51.05
2023-05-04T05:33:54.908Z,45.69
2023-05-04T05:36:27.854Z,44.13
2023-05-04T05:38:58.683Z,44.52
2023-05-04T05:41:30.766Z,44.00
2023-05-04T05:44:01.665Z,46.40
2023-05-04T05:46:33.401Z,48.06
2023-05-04T05:49:08.332Z,46.88
2023-05-04T05:51:40.976Z,43.69
2023-05-04T05:54:12.981Z,43.24
2023-05-04T05:56:43.584Z,43.61
2023-05-04T05:59:15.834Z,42.77
2023-05-04T06:01:46.404Z,42.27
2023-05-04T06:04:17.226Z,39.89
2023-05-04T06:06:48.426Z,37.13
2023-05-04T06:09:21.183Z,36.30
2023-05-04T06:11:53.389Z,35.81
2023-05-04T06:14:25.369Z,34.84
2023-05-04T06:16:56.380Z,35.44
2023-05-04T06:19:28.014Z,34.45
2023-05-04T06:21:59.698Z,36.60
2023-05-04T06:24:32.113Z,40.30
2023-05-04T06:27:03.706Z,40.40
2023-05-04T06:29:34.309Z,43.10
2023-05-04T06:32:05.310Z,40.81
2023-05-04T06:34:55.992Z,38.17
2023-05-04T06:37:26.520Z,41.25
2023-05-04T06:39:57.009Z,44.34
2023-05-04T06:42:31.766Z,45.03
2023-05-04T06:45:03.642Z,47.59
2023-05-04T06:47:39.604Z,50.21
2023-05-04T06:50:12.639Z,52.79
2023-05-04T06:52:44.992Z,53.68
2023-05-04T06:55:16.151Z,53.95
2023-05-04T06:57:46.971Z,53.50
2023-05-04T07:00:19.364Z,54.32
2023-05-04T07:02:53.038Z,54.00
2023-05-04T07:05:24.729Z,53.59
2023-05-04T07:07:55.720Z,54.06
2023-05-04T07:10:26.300Z,54.07
2023-05-04T07:12:57.434Z,53.89
2023-05-04T07:15:30.673Z,53.93
2023-05-04T07:18:02.806Z,52.86
2023-05-04T07:20:33.734Z,52.19
2023-05-04T07:23:04.945Z,51.71
2023-05-04T07:25:37.147Z,52.19
2023-05-04T07:28:07.790Z,51.78
2023-05-04T07:30:38.532Z,52.06
2023-05-04T07:33:09.808Z,51.97
2023-05-04T07:35:42.070Z,51.88
2023-05-04T07:38:13.065Z,51.55
2023-05-04T07:40:46.889Z,50.95
2023-05-04T07:43:18.228Z,50.78
2023-05-04T07:45:48.921Z,50.73
2023-05-04T07:48:20.044Z,50.54
2023-05-04T07:50:52.553Z,50.42
2023-05-04T07:53:25.018Z,50.57
2023-05-04T07:55:57.178Z,49.75
2023-05-04T07:58:29.169Z,50.52
2023-05-04T08:01:00.310Z,49.56
2023-05-04T08:03:34.002Z,49.38
2023-05-04T08:06:06.079Z,48.96
2023-05-04T08:08:38.256Z,48.54
2023-05-04T08:11:20.358Z,48.58
2023-05-04T08:13:52.773Z,48.43
2023-05-04T08:16:23.349Z,47.88
2023-05-04T08:18:53.970Z,46.93
2023-05-04T08:21:25.548Z,46.35
2023-05-04T08:23:57.463Z,46.86
2023-05-04T08:26:28.175Z,47.09
2023-05-04T08:29:10.837Z,47.20
2023-05-04T08:31:41.527Z,47.33
2023-05-04T08:34:12.142Z,46.56
2023-05-04T08:36:42.557Z,46.05
2023-05-04T08:39:13.786Z,45.51
2023-05-04T08:41:44.759Z,47.91
2023-05-04T08:44:18.800Z,46.45
2023-05-04T08:46:54.955Z,44.17
2023-05-04T08:49:25.747Z,44.13
2023-05-04T08:51:57.704Z,42.97
2023-05-04T08:54:30.908Z,43.27
2023-05-04T08:57:06.554Z,43.42
2023-05-04T08:59:38.279Z,43.35
2023-05-04T09:02:11.366Z,43.48
2023-05-04T09:04:45.284Z,43.91
2023-05-04T09:07:17.629Z,44.48
2023-05-04T09:09:51.381Z,44.07
2023-05-04T09:12:21.799Z,43.28
2023-05-04T09:14:52.312Z,42.52
2023-05-04T09:17:25.521Z,42.87
2023-05-04T09:20:04.694Z,42.28
2023-05-04T09:22:36.581Z,41.76
2023-05-04T09:25:10.354Z,42.30
2023-05-04T09:27:42.541Z,42.34
2023-05-04T09:30:15.386Z,41.97
2023-05-04T09:32:52.898Z,42.06
2023-05-04T09:35:33.833Z,41.83
2023-05-04T09:38:04.718Z,41.47
2023-05-04T09:40:40.314Z,41.28
2023-05-04T09:43:15.462Z,40.98
2023-05-04T09:45:50.110Z,40.75
2023-05-04T09:48:25.924Z,41.74
2023-05-04T09:50:57.944Z,41.11
2023-05-04T09:53:32.481Z,39.98
2023-05-04T09:56:22.913Z,40.45
2023-05-04T09:58:55.572Z,39.94
2023-05-04T10:01:30.704Z,40.18
2023-05-04T10:04:02.127Z,39.86
2023-05-04T10:06:33.876Z,39.84
2023-05-04T10:09:04.549Z,39.59
2023-05-04T10:11:35.857Z,39.53
2023-05-04T10:14:07.315Z,38.14
2023-05-04T10:17:17.875Z,36.91
2023-05-04T10:20:03.562Z,36.70
2023-05-04T10:22:59.602Z,36.92
2023-05-04T10:26:08.192Z,36.56
2023-05-04T10:28:45.832Z,36.43
2023-05-04T10:31:18.006Z,36.55
2023-05-04T10:33:51.646Z,37.72
2023-05-04T10:36:23.837Z,37.99
2023-05-04T10:38:55.219Z,38.24
2023-05-04T10:41:25.873Z,37.60
2023-05-04T10:44:07.174Z,37.67
2023-05-04T10:46:38.427Z,37.61
2023-05-04T10:49:21.064Z,37.30
2023-05-04T10:51:52.237Z,36.62
2023-05-04T10:54:23.353Z,35.09
2023-05-04T10:56:58.260Z,34.89
2023-05-04T10:59:30.969Z,34.45
2023-05-04T11:02:05.088Z,33.95
2023-05-04T11:04:36.404Z,34.60
2023-05-04T11:07:09.834Z,36.69
2023-05-04T11:09:44.273Z,36.59
2023-05-04T11:12:16.526Z,35.93
2023-05-04T11:14:47.018Z,35.71
2023-05-04T11:19:52.080Z,36.08
2023-05-04T11:22:23.550Z,34.37
2023-05-04T11:24:56.321Z,33.10
2023-05-04T11:27:30.705Z,32.46
2023-05-04T11:30:04.579Z,33.13
2023-05-04T11:32:43.743Z,32.65
2023-05-04T11:35:26.551Z,32.77
2023-05-04T11:37:57.722Z,33.08
2023-05-04T11:40:28.753Z,31.61
2023-05-04T11:43:00.461Z,30.89
2023-05-04T11:45:34.161Z,32.87
2023-05-04T11:48:05.496Z,33.66
2023-05-04T11:50:36.578Z,33.28
2023-05-04T11:53:12.197Z,32.57
2023-05-04T11:55:43.076Z,30.94
2023-05-04T11:58:13.669Z,31.42
2023-05-04T12:00:46.325Z,30.34
2023-05-04T12:03:19.748Z,31.18
2023-05-04T12:05:52.872Z,31.45
2023-05-04T12:08:33.972Z,32.87
2023-05-04T12:11:13.494Z,32.82
2023-05-04T12:13:46.198Z,32.12
2023-05-04T12:16:19.179Z,31.88
2023-05-04T12:18:50.055Z,31.58
2023-05-04T12:21:25.515Z,32.06
2023-05-04T12:24:00.292Z,31.72
2023-05-04T12:26:31.270Z,32.37
2023-05-04T12:29:02.410Z,34.41
2023-05-04T12:31:33.013Z,33.41
2023-05-04T12:34:04.485Z,37.02
2023-05-04T12:36:38.674Z,33.24
2023-05-04T12:39:09.250Z,32.92
2023-05-04T12:41:40.241Z,32.50
2023-05-04T12:44:11.787Z,33.36
2023-05-04T12:46:43.702Z,32.95
2023-05-04T12:49:19.046Z,33.26
2023-05-04T12:51:51.034Z,32.88
2023-05-04T12:54:21.580Z,33.45
2023-05-04T12:56:53.707Z,33.66
2023-05-04T12:59:26.380Z,33.07
2023-05-04T13:01:57.320Z,32.56
2023-05-04T13:04:29.740Z,33.40
2023-05-04T13:07:00.728Z,32.99
2023-05-04T13:09:31.628Z,31.87
2023-05-04T13:12:02.244Z,31.98
2023-05-04T13:14:39.544Z,32.23
2023-05-04T13:17:05.252Z,31.86
2023-05-04T13:19:36.573Z,31.66
2023-05-04T13:22:08.393Z,32.00
2023-05-04T13:24:38.831Z,31.79
2023-05-04T13:27:09.465Z,32.71
2023-05-04T13:29:44.118Z,32.43
2023-05-04T13:32:13.945Z,32.40
2023-05-04T13:34:44.753Z,32.24
2023-05-04T13:37:17.194Z,32.69
2023-05-04T13:39:48.683Z,32.58
2023-05-04T13:42:19.301Z,32.64
2023-05-04T13:44:50.440Z,31.54
2023-05-04T13:47:21.743Z,32.47
2023-05-04T13:49:54.066Z,32.39
2023-05-04T13:52:24.819Z,32.47
2023-05-04T13:54:55.397Z,32.17
2023-05-04T13:57:29.731Z,32.27
2023-05-04T14:00:07.529Z,32.53
2023-05-04T14:02:35.108Z,32.61
2023-05-04T14:05:07.474Z,32.10
2023-05-04T14:07:38.444Z,31.07
2023-05-04T14:10:09.688Z,33.26
2023-05-04T14:12:40.804Z,31.88
2023-05-04T14:15:12.017Z,32.47
2023-05-04T14:17:42.470Z,31.13
2023-05-04T14:20:13.961Z,32.09
2023-05-04T14:22:45.989Z,31.89
2023-05-04T14:25:16.889Z,31.59
2023-05-04T14:27:47.426Z,31.10
2023-05-04T14:30:19.745Z,31.40
2023-05-04T14:32:53.697Z,31.49
2023-05-04T14:35:26.672Z,32.80
2023-05-04T14:37:57.144Z,33.59
2023-05-04T14:40:27.955Z,33.74
2023-05-04T14:43:00.659Z,34.23
2023-05-04T14:45:32.867Z,34.42
2023-05-04T14:48:03.425Z,34.45
2023-05-04T14:50:36.944Z,34.04
2023-05-04T14:53:08.415Z,32.01
2023-05-04T14:55:40.520Z,31.56
2023-05-04T14:58:12.807Z,31.30
2023-05-04T15:00:43.450Z,32.14
2023-05-04T15:03:14.494Z,32.85
2023-05-04T15:05:46.336Z,33.20
2023-05-04T15:08:17.107Z,33.37
2023-05-04T15:10:47.611Z,32.85
2023-05-04T15:13:20.241Z,32.49
2023-05-04T15:15:51.177Z,32.53
2023-05-04T15:18:23.568Z,31.83
2023-05-04T15:20:54.061Z,32.74
2023-05-04T15:23:24.606Z,32.40
2023-05-04T15:25:56.049Z,32.02
2023-05-04T15:28:26.565Z,32.06
2023-05-04T15:30:57.742Z,32.01
2023-05-04T15:33:28.454Z,31.97
2023-05-04T15:36:00.575Z,31.85
2023-05-04T15:38:31.106Z,31.89
2023-05-04T15:41:04.838Z,32.11
2023-05-04T15:43:41.380Z,31.88
2023-05-04T15:46:12.070Z,31.81
2023-05-04T15:48:43.164Z,31.41
2023-05-04T15:51:14.599Z,32.08
2023-05-04T15:53:48.020Z,32.49
2023-05-04T15:56:21.764Z,32.81
2023-05-04T15:58:53.746Z,32.04
2023-05-04T16:01:24.894Z,32.08
2023-05-04T16:03:57.524Z,32.25
2023-05-04T16:06:30.056Z,32.60
2023-05-04T16:09:01.169Z,32.61
2023-05-04T16:11:37.752Z,32.40
2023-05-04T16:14:09.297Z,31.68
2023-05-04T16:16:40.155Z,31.68
2023-05-04T16:19:11.766Z,31.97
2023-05-04T16:21:43.986Z,32.56
2023-05-04T16:24:15.659Z,33.72
2023-05-04T16:26:47.881Z,33.25
2023-05-04T16:29:18.452Z,33.66
2023-05-04T16:31:50.942Z,32.62
2023-05-04T16:34:21.464Z,32.56
2023-05-04T16:36:52.227Z,31.96
2023-05-04T16:39:22.801Z,32.16
2023-05-04T16:41:55.635Z,32.66
2023-05-04T16:44:27.817Z,32.78
2023-05-04T16:47:00.339Z,33.43
2023-05-04T16:49:31.373Z,33.70
2023-05-04T16:52:03.007Z,34.80
2023-05-04T16:54:35.129Z,32.87
2023-05-04T16:57:05.902Z,32.73
2023-05-04T16:59:36.391Z,33.22
2023-05-04T17:02:08.573Z,32.62
2023-05-04T17:04:39.376Z,31.88
2023-05-04T17:07:11.770Z,33.01
2023-05-04T17:09:42.817Z,32.14
2023-05-04T17:12:15.063Z,32.66
2023-05-04T17:14:46.175Z,33.09
2023-05-04T17:17:16.846Z,33.26
2023-05-04T17:19:47.732Z,33.11
2023-05-04T17:22:18.621Z,33.45
2023-05-04T17:24:49.248Z,33.50
2023-05-04T17:27:19.907Z,33.51
2023-05-04T17:29:52.178Z,33.62
2023-05-04T17:32:24.730Z,34.22
2023-05-04T17:35:01.240Z,34.48
2023-05-04T17:37:30.643Z,35.22
2023-05-04T17:40:01.717Z,35.20
2023-05-04T17:42:34.353Z,35.07
2023-05-04T17:45:08.384Z,35.60
2023-05-04T17:47:40.757Z,35.92
2023-05-04T17:50:11.569Z,35.65
2023-05-04T17:52:44.350Z,36.73
2023-05-04T17:55:16.766Z,35.87
2023-05-04T17:57:50.643Z,36.37
2023-05-04T18:00:22.360Z,36.43
2023-05-04T18:02:53.866Z,36.35
2023-05-04T18:05:27.347Z,36.76
2023-05-04T18:08:02.363Z,36.89
2023-05-04T18:10:37.098Z,37.19
2023-05-04T18:13:09.262Z,38.90
2023-05-04T18:15:42.014Z,41.00
2023-05-04T18:18:12.455Z,41.78
2023-05-04T18:20:43.289Z,42.88
2023-05-04T18:23:14.713Z,43.58
2023-05-04T18:25:45.258Z,44.13
2023-05-04T18:28:17.376Z,44.48
2023-05-04T18:30:47.947Z,44.86
2023-05-04T18:33:18.553Z,45.43
2023-05-04T18:35:49.072Z,45.84
2023-05-04T18:38:19.523Z,46.30
2023-05-04T18:40:53.581Z,46.49
2023-05-04T18:43:23.976Z,46.77
2023-05-04T18:45:54.695Z,46.80
2023-05-04T18:48:27.127Z,47.10
2023-05-04T18:50:58.138Z,47.10
2023-05-04T18:53:29.942Z,47.47
2023-05-04T18:56:12.187Z,47.15
2023-05-04T18:58:42.667Z,47.11
2023-05-04T19:01:14.678Z,47.02
2023-05-04T19:03:47.880Z,47.05
2023-05-04T19:06:18.436Z,47.01
2023-05-04T19:08:49.227Z,46.98
2023-05-04T19:11:22.645Z,46.85
2023-05-04T19:13:56.049Z,47.01
2023-05-04T19:16:29.301Z,46.97
2023-05-04T19:19:02.913Z,47.01
2023-05-04T19:21:36.448Z,47.06
2023-05-04T19:24:07.780Z,47.25
2023-05-04T19:26:39.789Z,46.64
2023-05-04T19:29:11.874Z,46.71
2023-05-04T19:31:42.472Z,46.70
2023-05-04T19:34:15.511Z,46.74
2023-05-04T19:36:46.086Z,46.89
2023-05-04T19:39:17.062Z,47.04
2023-05-04T19:41:47.670Z,46.92
2023-05-04T19:44:18.297Z,46.91
2023-05-04T19:46:50.917Z,47.03
2023-05-04T19:49:22.863Z,46.91
2023-05-04T19:51:54.340Z,46.75
2023-05-04T19:54:26.132Z,47.00
2023-05-04T19:56:56.714Z,47.16
2023-05-04T19:59:28.945Z,47.21
2023-05-04T20:02:02.097Z,47.12
2023-05-04T20:04:33.821Z,47.18
2023-05-04T20:07:05.939Z,47.24
2023-05-04T20:09:37.928Z,47.57
2023-05-04T20:12:10.761Z,47.82
2023-05-04T20:14:43.270Z,47.57
2023-05-04T20:17:15.883Z,47.56
2023-05-04T20:19:47.489Z,47.63
2023-05-04T20:22:17.949Z,47.72
2023-05-04T20:24:50.927Z,47.87
2023-05-04T20:27:22.593Z,48.05
2023-05-04T20:29:53.214Z,48.04
2023-05-04T20:32:23.877Z,48.08
2023-05-04T20:34:54.453Z,48.19
2023-05-04T20:37:26.543Z,48.46
2023-05-04T20:40:00.846Z,48.55
2023-05-04T20:42:31.810Z,48.82
2023-05-04T20:45:02.446Z,48.87
2023-05-04T20:47:36.304Z,49.17
2023-05-04T20:50:10.434Z,49.26
2023-05-04T20:52:41.908Z,49.71
2023-05-04T20:55:13.004Z,50.04
2023-05-04T20:57:43.593Z,50.37
2023-05-04T21:00:15.520Z,50.68
2023-05-04T21:02:47.933Z,51.01
2023-05-04T21:05:20.652Z,51.14
2023-05-04T21:07:54.579Z,51.52
2023-05-04T21:10:26.648Z,51.92
2023-05-04T21:12:59.054Z,52.37
2023-05-04T21:15:30.024Z,52.90
2023-05-04T21:18:03.718Z,53.41
2023-05-04T21:20:34.783Z,53.80
2023-05-04T21:23:05.785Z,53.98
2023-05-04T21:25:37.539Z,54.39
2023-05-04T21:28:08.545Z,54.46
2023-05-04T21:30:48.992Z,54.67
2023-05-04T21:33:19.569Z,54.92
2023-05-04T21:35:50.700Z,55.12
2023-05-04T21:38:22.732Z,55.24
2023-05-04T21:40:54.825Z,55.59
2023-05-04T21:43:25.436Z,55.73
2023-05-04T21:45:58.364Z,56.02
2023-05-04T21:48:31.635Z,56.34
2023-05-04T21:51:02.526Z,57.07
2023-05-04T21:53:37.704Z,57.81
2023-05-04T21:56:10.282Z,58.30
2023-05-04T21:58:42.071Z,58.73
2023-05-04T22:01:17.696Z,59.30
2023-05-04T22:03:48.397Z,59.76
2023-05-04T22:06:20.560Z,60.42
2023-05-04T22:09:10.247Z,60.75
2023-05-04T22:11:41.230Z,61.34
2023-05-04T22:14:11.794Z,61.70
2023-05-04T22:16:45.174Z,62.07
2023-05-04T22:19:15.747Z,62.48
2023-05-04T22:21:47.034Z,62.69
2023-05-04T22:24:17.779Z,62.94
2023-05-04T22:26:48.752Z,63.33
2023-05-04T22:29:19.481Z,63.57
2023-05-04T22:31:50.109Z,63.93
2023-05-04T22:34:20.754Z,64.12
2023-05-04T22:36:51.295Z,64.33
2023-05-04T22:39:22.109Z,64.42
2023-05-04T22:41:54.099Z,64.45
2023-05-04T22:44:24.661Z,64.71
2023-05-04T22:46:56.926Z,64.99
2023-05-04T22:49:27.444Z,65.07
2023-05-04T22:51:57.917Z,65.47
2023-05-04T22:54:28.456Z,65.68
2023-05-04T22:56:59.491Z,65.83
2023-05-04T22:59:31.416Z,66.23
2023-05-04T23:02:04.076Z,66.26
2023-05-04T23:04:34.774Z,66.47
2023-05-04T23:07:05.247Z,66.78
2023-05-04T23:09:43.853Z,66.92
2023-05-04T23:12:15.939Z,66.91
2023-05-04T23:14:48.065Z,67.17
2023-05-04T23:17:18.637Z,67.25
2023-05-04T23:19:49.262Z,67.46
2023-05-04T23:22:21.320Z,67.48
2023-05-04T23:24:51.905Z,67.48
2023-05-04T23:27:22.398Z,67.47
2023-05-04T23:29:53.161Z,67.57
2023-05-04T23:32:23.697Z,67.39
2023-05-04T23:34:54.220Z,67.41
2023-05-04T23:37:24.714Z,67.57
2023-05-04T23:39:55.180Z,67.51
2023-05-04T23:42:26.312Z,67.43
2023-05-04T23:44:57.438Z,67.56
2023-05-04T23:47:28.302Z,67.53
2023-05-04T23:49:59.071Z,67.64
2023-05-04T23:52:29.913Z,67.50
2023-05-04T23:55:02.627Z,67.53
2023-05-04T23:57:33.221Z,67.37
